Time;durP1;ratioP1;P1;durP2;ratioP2;P2;SDS_P1;SDS_P2;PMS_P1;PMS_P2;Temp;Humidity;BMP_temperature;BMP_pressure;BME280_temperature;BME280_humidity;BME280_pressure;Samples;Min_cycle;Max_cycle;Signal;HPM_P1;HPM_P2
2021/03/12 00:01:56;;;;;;;2.67;0.60;;;6.80;99.90;;;;;;5078073;28;20530;-76
2021/03/12 00:04:22;;;;;;;1.58;0.63;;;6.80;99.90;;;;;;5078005;28;20027;-76
2021/03/12 00:06:47;;;;;;;1.00;0.60;;;6.70;99.90;;;;;;5077905;28;20069;-77
2021/03/12 00:09:13;;;;;;;1.05;0.60;;;6.70;99.90;;;;;;5077930;28;20028;-76
2021/03/12 00:11:39;;;;;;;2.05;1.27;;;6.60;99.90;;;;;;5077770;28;20457;-77
2021/03/12 00:14:04;;;;;;;0.68;0.50;;;6.60;99.90;;;;;;5077796;28;20500;-76
2021/03/12 00:16:30;;;;;;;1.48;0.82;;;6.50;99.90;;;;;;5077706;28;20016;-76
2021/03/12 00:18:55;;;;;;;1.98;0.50;;;6.40;99.90;;;;;;5077753;28;20501;-76
2021/03/12 00:21:21;;;;;;;1.10;0.73;;;6.30;99.90;;;;;;5077791;28;20024;-77
2021/03/12 00:23:47;;;;;;;1.33;0.60;;;6.20;99.90;;;;;;5077695;28;20032;-77
2021/03/12 00:26:13;;;;;;;1.30;0.55;;;6.20;99.90;;;;;;5077503;28;20081;-77
2021/03/12 00:28:39;;;;;;;0.80;0.50;;;6.10;99.90;;;;;;5077475;28;20513;-76
2021/03/12 00:31:06;;;;;;;0.70;0.40;;;6.10;99.90;;;;;;5077462;28;20121;-76
2021/03/12 00:33:31;;;;;;;0.50;0.50;;;6.00;99.90;;;;;;5077277;28;20030;-76
2021/03/12 00:35:57;;;;;;;0.88;0.60;;;6.00;99.90;;;;;;5077328;28;20012;-76
2021/03/12 00:38:23;;;;;;;1.02;0.50;;;6.00;99.90;;;;;;5094489;28;20070;-76
2021/03/12 00:40:50;;;;;;;0.55;0.50;;;5.90;99.90;;;;;;5095410;28;20024;-76
2021/03/12 00:43:17;;;;;;;0.80;0.80;;;5.80;99.90;;;;;;5076989;28;20401;-76
2021/03/12 00:45:45;;;;;;;1.70;0.60;;;5.70;99.90;;;;;;5076888;28;20511;-76
2021/03/12 00:48:11;;;;;;;2.67;0.52;;;5.60;99.90;;;;;;5076871;28;20473;-76
2021/03/12 00:50:38;;;;;;;0.43;0.40;;;5.50;99.90;;;;;;5076968;28;20023;-76
2021/03/12 00:53:05;;;;;;;0.60;0.60;;;5.50;99.90;;;;;;5076905;28;20137;-76
2021/03/12 00:55:32;;;;;;;0.93;0.60;;;5.50;99.90;;;;;;5076747;28;20031;-76
2021/03/12 00:57:58;;;;;;;0.65;0.50;;;5.40;99.90;;;;;;5095033;28;20020;-76
2021/03/12 01:00:25;;;;;;;0.50;0.50;;;5.50;99.90;;;;;;5095216;28;20028;-76
2021/03/12 01:02:52;;;;;;;0.50;0.50;;;5.50;99.90;;;;;;5076799;28;20034;-76
2021/03/12 01:05:18;;;;;;;1.65;0.60;;;5.50;99.90;;;;;;5094821;28;20028;-76
2021/03/12 01:07:44;;;;;;;0.82;0.60;;;5.50;99.90;;;;;;5076568;28;20028;-76
2021/03/12 01:10:11;;;;;;;0.50;0.50;;;5.50;99.90;;;;;;5076630;28;20034;-76
2021/03/12 01:12:37;;;;;;;1.15;0.70;;;5.60;99.90;;;;;;5094665;28;20032;-76
2021/03/12 01:15:09;;;;;;;0.38;0.38;;;5.60;99.90;;;;;;5094580;28;20081;-76
2021/03/12 01:17:35;;;;;;;0.65;0.40;;;5.70;99.90;;;;;;5076462;28;20387;-76
2021/03/12 01:20:05;;;;;;;0.52;0.43;;;5.70;99.90;;;;;;5076308;28;20039;-76
2021/03/12 01:22:30;;;;;;;0.95;0.40;;;5.70;99.90;;;;;;5076359;28;20448;-76
2021/03/12 01:24:56;;;;;;;0.43;0.30;;;5.70;99.90;;;;;;5094493;28;20064;-76
2021/03/12 01:27:21;;;;;;;0.85;0.55;;;5.70;99.90;;;;;;5076429;28;20028;-76
2021/03/12 01:29:47;;;;;;;0.45;0.45;;;5.70;99.90;;;;;;5094345;28;20031;-76
2021/03/12 01:32:12;;;;;;;0.82;0.50;;;5.70;99.90;;;;;;5094479;28;20492;-76
2021/03/12 01:34:38;;;;;;;0.70;0.45;;;5.70;99.90;;;;;;5094343;28;20032;-76
2021/03/12 01:37:04;;;;;;;1.30;0.43;;;5.60;99.90;;;;;;5094334;28;20020;-76
2021/03/12 01:39:29;;;;;;;0.93;0.73;;;5.60;99.90;;;;;;5094231;28;20106;-76
2021/03/12 01:41:55;;;;;;;4.43;0.65;;;5.60;99.90;;;;;;5076077;28;20032;-76
2021/03/12 01:44:20;;;;;;;3.75;0.60;;;5.50;99.90;;;;;;5094451;28;20036;-76
2021/03/12 01:46:46;;;;;;;1.95;0.50;;;5.40;99.90;;;;;;5075818;28;20036;-76
2021/03/12 01:49:12;;;;;;;1.45;0.50;;;5.30;99.90;;;;;;5075435;28;20093;-76
2021/03/12 01:51:37;;;;;;;3.53;0.80;;;5.30;99.90;;;;;;5094235;28;20038;-76
2021/03/12 01:54:03;;;;;;;2.00;0.75;;;5.30;99.90;;;;;;5093914;28;20073;-76
2021/03/12 01:56:29;;;;;;;1.65;0.57;;;5.40;99.90;;;;;;5075516;28;20020;-76
2021/03/12 01:58:55;;;;;;;1.33;0.50;;;5.40;99.90;;;;;;5075784;28;20067;-76
2021/03/12 02:01:20;;;;;;;0.40;0.40;;;5.30;99.90;;;;;;5075810;28;20031;-76
2021/03/12 02:03:46;;;;;;;2.25;0.63;;;5.40;99.90;;;;;;5093841;28;20024;-76
2021/03/12 02:06:12;;;;;;;1.05;0.45;;;5.30;99.90;;;;;;5093766;28;20024;-76
2021/03/12 02:08:37;;;;;;;0.40;0.40;;;5.40;99.90;;;;;;5093761;28;20025;-76
2021/03/12 02:11:03;;;;;;;0.70;0.40;;;5.50;99.90;;;;;;5075599;28;20393;-76
2021/03/12 02:13:50;;;;;;;4.30;0.60;;;5.50;99.90;;;;;;5093633;28;20032;-76
2021/03/12 02:16:27;;;;;;;0.57;0.40;;;5.50;99.90;;;;;;5075410;28;20401;-76
2021/03/12 02:19:02;;;;;;;0.57;0.40;;;5.50;99.90;;;;;;5097032;28;20031;-75
2021/03/12 02:21:37;;;;;;;1.30;0.60;;;5.50;99.90;;;;;;5110101;28;20396;-76
2021/03/12 02:24:21;;;;;;;3.10;0.68;;;5.40;99.90;;;;;;5110855;28;20031;-76
2021/03/12 02:26:46;;;;;;;0.73;0.50;;;5.40;99.90;;;;;;5111979;28;20020;-75
2021/03/12 02:29:15;;;;;;;1.52;0.55;;;5.30;99.90;;;;;;5109849;28;20115;-75
2021/03/12 02:31:41;;;;;;;1.00;0.50;;;5.40;99.90;;;;;;5088513;28;20026;-75
2021/03/12 02:34:09;;;;;;;3.25;1.45;;;5.40;99.90;;;;;;5096450;28;20028;-76
2021/03/12 02:36:39;;;;;;;0.30;0.30;;;5.40;99.90;;;;;;5075444;28;20024;-76
2021/03/12 02:39:09;;;;;;;1.55;0.68;;;5.40;99.90;;;;;;5075366;28;20032;-76
2021/03/12 02:41:36;;;;;;;3.03;0.60;;;5.40;99.90;;;;;;5093805;28;20056;-76
2021/03/12 02:44:06;;;;;;;0.30;0.30;;;5.40;99.90;;;;;;5093535;28;20035;-76
2021/03/12 02:46:33;;;;;;;2.08;0.50;;;5.40;99.90;;;;;;5092985;28;20032;-76
2021/03/12 02:48:59;;;;;;;1.20;0.50;;;5.40;99.90;;;;;;5075068;28;20028;-76
2021/03/12 02:51:25;;;;;;;0.73;0.40;;;5.40;99.90;;;;;;5075169;28;20385;-76
2021/03/12 02:53:51;;;;;;;1.38;0.50;;;5.40;99.90;;;;;;5074935;28;20077;-76
2021/03/12 02:56:17;;;;;;;1.75;0.50;;;5.40;99.90;;;;;;5093068;28;20489;-76
2021/03/12 02:58:45;;;;;;;1.42;0.40;;;5.40;99.90;;;;;;5075011;28;20035;-76
2021/03/12 03:01:12;;;;;;;2.80;0.40;;;5.40;99.90;;;;;;5095095;28;20024;-76
2021/03/12 03:03:39;;;;;;;1.08;0.40;;;5.40;99.90;;;;;;5097505;28;20077;-76
2021/03/12 03:06:06;;;;;;;0.70;0.40;;;5.40;99.90;;;;;;5097235;28;20062;-76
2021/03/12 03:08:42;;;;;;;0.38;0.38;;;5.50;99.90;;;;;;5097112;28;20020;-76
2021/03/12 03:11:09;;;;;;;0.52;0.50;;;5.50;99.90;;;;;;5079126;28;20024;-76
2021/03/12 03:13:37;;;;;;;1.55;0.50;;;5.50;99.90;;;;;;5078922;28;20020;-76
2021/03/12 03:16:06;;;;;;;0.45;0.40;;;5.40;99.90;;;;;;5097048;28;20020;-76
2021/03/12 03:18:35;;;;;;;3.30;0.63;;;5.30;99.90;;;;;;5097180;28;20028;-76
2021/03/12 03:21:03;;;;;;;0.68;0.52;;;5.30;99.90;;;;;;5096980;28;20035;-76
2021/03/12 03:23:28;;;;;;;8.18;1.02;;;5.20;99.90;;;;;;5078719;28;20077;-76
2021/03/12 03:25:54;;;;;;;1.67;0.65;;;5.10;99.90;;;;;;5078544;28;20024;-76
2021/03/12 03:28:20;;;;;;;1.98;0.60;;;5.10;99.90;;;;;;5096987;28;20086;-75
2021/03/12 03:30:47;;;;;;;2.63;0.60;;;5.00;99.90;;;;;;5078499;28;20473;-75
2021/03/12 03:33:13;;;;;;;1.23;0.40;;;5.00;99.90;;;;;;5078633;28;20031;-75
2021/03/12 03:35:38;;;;;;;1.10;0.40;;;4.90;99.90;;;;;;5078422;28;20020;-75
2021/03/12 03:38:04;;;;;;;3.33;0.80;;;5.00;99.90;;;;;;5079289;28;20113;-75
2021/03/12 03:40:30;;;;;;;0.98;0.45;;;5.00;99.90;;;;;;5078353;28;20504;-75
2021/03/12 03:42:59;;;;;;;0.98;0.32;;;5.00;99.90;;;;;;5078200;28;20485;-75
2021/03/12 03:45:30;;;;;;;2.28;0.45;;;5.00;99.90;;;;;;5078083;28;20119;-75
2021/03/12 03:47:57;;;;;;;2.33;0.50;;;5.10;99.90;;;;;;5078248;28;20130;-75
2021/03/12 03:50:24;;;;;;;3.72;0.60;;;5.10;99.90;;;;;;5078052;28;20107;-74
2021/03/12 03:52:51;;;;;;;0.90;0.50;;;5.20;99.90;;;;;;5078114;28;20042;-75
2021/03/12 03:55:19;;;;;;;0.60;0.50;;;5.20;99.90;;;;;;5077972;28;20516;-74
2021/03/12 03:57:45;;;;;;;1.00;0.55;;;5.20;99.90;;;;;;5077988;28;20481;-75
2021/03/12 04:00:11;;;;;;;0.88;0.40;;;5.30;99.90;;;;;;5096419;28;20116;-75
2021/03/12 04:02:37;;;;;;;1.55;0.45;;;5.30;99.90;;;;;;5077893;28;20374;-74
2021/03/12 04:05:05;;;;;;;2.90;1.00;;;5.30;99.90;;;;;;5096077;28;20488;-74
2021/03/12 04:07:31;;;;;;;1.65;0.60;;;5.40;99.90;;;;;;5077810;28;20107;-75
2021/03/12 04:09:57;;;;;;;2.67;0.93;;;5.40;99.90;;;;;;5077749;28;20431;-74
2021/03/12 04:12:25;;;;;;;0.65;0.57;;;5.40;99.90;;;;;;5077495;28;20024;-75
2021/03/12 04:14:51;;;;;;;1.60;0.77;;;5.40;99.90;;;;;;5095843;28;20411;-74
2021/03/12 04:17:17;;;;;;;0.65;0.40;;;5.40;99.90;;;;;;5096055;28;20492;-74
2021/03/12 04:19:46;;;;;;;3.70;0.70;;;5.40;99.90;;;;;;5095753;28;20062;-74
2021/03/12 04:22:13;;;;;;;1.55;0.75;;;5.50;99.90;;;;;;5095788;28;20060;-75
2021/03/12 04:24:40;;;;;;;1.20;0.50;;;5.50;99.90;;;;;;5077787;28;20028;-75
2021/03/12 04:27:06;;;;;;;2.33;0.60;;;5.50;99.90;;;;;;5095722;28;20024;-74
2021/03/12 04:29:33;;;;;;;2.13;0.60;;;5.50;99.90;;;;;;5095689;28;20552;-74
2021/03/12 04:31:59;;;;;;;2.42;0.55;;;5.50;99.90;;;;;;5095802;28;20024;-74
2021/03/12 04:34:25;;;;;;;1.17;0.50;;;5.50;99.90;;;;;;5095992;28;20380;-74
2021/03/12 04:36:52;;;;;;;1.35;0.60;;;5.50;99.90;;;;;;5095490;28;20074;-74
2021/03/12 04:39:18;;;;;;;2.42;0.50;;;5.50;99.90;;;;;;5095718;28;20094;-73
2021/03/12 04:41:46;;;;;;;1.92;0.57;;;5.50;99.90;;;;;;5095684;28;20052;-74
2021/03/12 04:44:13;;;;;;;1.42;0.50;;;5.60;99.90;;;;;;5095464;28;20069;-74
2021/03/12 04:46:40;;;;;;;1.13;0.43;;;5.60;99.90;;;;;;5091647;22;20109;-74
2021/03/12 04:49:08;;;;;;;1.77;0.60;;;5.50;99.90;;;;;;5076824;28;20024;-76
2021/03/12 04:51:35;;;;;;;2.55;0.90;;;5.50;99.90;;;;;;5077014;28;20142;-76
2021/03/12 04:54:01;;;;;;;1.70;0.63;;;5.50;99.90;;;;;;5076915;28;20438;-75
2021/03/12 04:56:26;;;;;;;2.42;0.80;;;5.50;99.90;;;;;;5076959;28;20111;-74
2021/03/12 04:58:52;;;;;;;3.63;0.75;;;5.50;99.90;;;;;;5076971;28;20393;-74
2021/03/12 05:01:18;;;;;;;1.25;0.70;;;5.60;99.90;;;;;;5076935;28;20042;-74
2021/03/12 05:03:44;;;;;;;2.33;0.75;;;5.60;99.90;;;;;;5076716;28;20032;-75
2021/03/12 05:06:10;;;;;;;1.98;0.50;;;5.70;99.90;;;;;;5094936;28;20028;-74
2021/03/12 05:08:38;;;;;;;1.05;0.70;;;5.70;99.90;;;;;;5076697;28;20115;-74
2021/03/12 05:11:08;;;;;;;3.10;0.73;;;5.70;99.90;;;;;;5094927;28;20020;-74
2021/03/12 05:13:35;;;;;;;3.03;0.82;;;5.80;99.90;;;;;;5094838;28;20023;-74
2021/03/12 05:16:01;;;;;;;3.00;0.50;;;5.80;99.90;;;;;;5094622;28;20020;-74
2021/03/12 05:18:26;;;;;;;3.85;0.40;;;5.80;99.90;;;;;;5076559;28;20020;-73
2021/03/12 05:20:52;;;;;;;1.15;0.50;;;5.80;99.90;;;;;;5093280;28;20047;-74
2021/03/12 05:23:19;;;;;;;3.78;0.70;;;5.70;99.90;;;;;;5094018;28;20099;-73
2021/03/12 05:25:45;;;;;;;1.17;0.43;;;5.70;99.90;;;;;;5076587;28;20397;-74
2021/03/12 05:28:11;;;;;;;1.48;0.50;;;5.70;99.90;;;;;;5094571;28;20016;-73
2021/03/12 05:30:37;;;;;;;1.20;0.57;;;5.70;99.90;;;;;;5093256;28;20090;-74
2021/03/12 05:33:04;;;;;;;1.83;0.70;;;5.70;99.90;;;;;;5094400;28;20141;-74
2021/03/12 05:35:30;;;;;;;0.73;0.60;;;5.70;99.90;;;;;;5094562;28;20111;-74
2021/03/12 05:37:55;;;;;;;4.70;0.57;;;5.80;99.90;;;;;;5095012;28;20059;-74
2021/03/12 05:40:21;;;;;;;1.58;0.57;;;5.70;99.90;;;;;;5094567;28;20024;-74
2021/03/12 05:42:50;;;;;;;2.47;0.77;;;5.70;99.90;;;;;;5094553;28;20473;-74
2021/03/12 05:45:17;;;;;;;2.45;0.50;;;5.60;99.90;;;;;;5094439;28;20024;-74
2021/03/12 05:47:43;;;;;;;3.92;0.70;;;5.50;99.90;;;;;;5094556;28;20036;-75
2021/03/12 05:50:09;;;;;;;3.13;0.88;;;5.50;99.90;;;;;;5094486;28;20035;-74
2021/03/12 05:52:35;;;;;;;4.00;0.77;;;5.60;99.90;;;;;;5076244;28;20020;-75
2021/03/12 05:55:01;;;;;;;2.17;0.60;;;5.60;99.90;;;;;;5094587;28;20401;-75
2021/03/12 05:57:29;;;;;;;1.27;0.50;;;5.40;99.90;;;;;;5076223;28;20024;-75
2021/03/12 05:59:58;;;;;;;2.55;0.60;;;5.40;99.90;;;;;;5094512;28;20032;-75
2021/03/12 06:02:25;;;;;;;3.13;0.57;;;5.30;99.90;;;;;;5094494;28;20028;-75
2021/03/12 06:04:50;;;;;;;1.30;0.70;;;5.40;99.90;;;;;;5075880;28;20035;-75
2021/03/12 06:07:16;;;;;;;2.50;0.70;;;5.40;99.90;;;;;;5094895;28;20032;-75
2021/03/12 06:09:43;;;;;;;2.30;0.50;;;5.40;99.90;;;;;;5075546;28;20143;-75
2021/03/12 06:12:10;;;;;;;4.28;0.60;;;5.50;99.90;;;;;;5075680;28;20063;-75
2021/03/12 06:14:56;;;;;;;3.03;0.52;;;5.50;99.90;;;;;;5075484;28;20180;-75
2021/03/12 06:17:43;;;;;;;1.23;0.40;;;5.60;99.90;;;;;;5075513;28;20473;-75
2021/03/12 06:20:13;;;;;;;0.52;0.40;;;5.70;99.90;;;;;;5075484;28;20032;-75
2021/03/12 06:22:53;;;;;;;0.90;0.50;;;5.80;99.90;;;;;;5075473;28;20031;-75
2021/03/12 06:25:24;;;;;;;1.08;0.55;;;5.80;99.90;;;;;;5075250;28;20118;-75
2021/03/12 06:27:56;;;;;;;1.20;0.50;;;5.90;99.90;;;;;;5093615;28;20032;-75
2021/03/12 06:30:23;;;;;;;2.00;0.75;;;5.80;99.90;;;;;;5075648;28;20111;-75
2021/03/12 06:32:54;;;;;;;1.48;0.70;;;5.80;99.90;;;;;;5075321;28;20035;-75
2021/03/12 06:35:25;;;;;;;0.63;0.50;;;5.80;99.90;;;;;;5075298;28;20028;-75
2021/03/12 06:37:53;;;;;;;1.67;0.70;;;6.00;99.90;;;;;;5075620;28;20054;-75
2021/03/12 06:40:24;;;;;;;1.30;0.60;;;6.20;99.90;;;;;;5075381;28;20025;-75
2021/03/12 06:43:18;;;;;;;3.70;0.80;;;6.50;99.90;;;;;;5075783;28;20166;-75
2021/03/12 06:45:50;;;;;;;2.05;0.73;;;6.80;99.90;;;;;;5074961;28;20086;-76
2021/03/12 06:48:18;;;;;;;3.17;0.57;;;7.00;99.90;;;;;;5091841;28;20053;-75
2021/03/12 06:50:51;;;;;;;1.98;0.40;;;7.30;99.90;;;;;;5074955;28;20059;-76
2021/03/12 06:53:18;;;;;;;3.33;1.05;;;7.30;99.90;;;;;;5074760;28;20473;-76
2021/03/12 06:55:44;;;;;;;1.23;0.80;;;7.20;99.90;;;;;;5074924;28;20114;-76
2021/03/12 06:58:10;;;;;;;3.78;0.90;;;7.20;99.90;;;;;;5074894;28;20020;-75
2021/03/12 07:00:36;;;;;;;2.20;0.57;;;7.40;99.90;;;;;;5074960;28;20489;-75
2021/03/12 07:03:19;;;;;;;2.30;0.70;;;7.50;99.90;;;;;;5075030;28;20061;-76
2021/03/12 07:05:55;;;;;;;;;;;7.50;99.90;;;;;;5075628;28;20047;-75
2021/03/12 07:08:48;;;;;;;4.75;0.70;;;7.50;99.90;;;;;;5074753;28;19912;-75
2021/03/12 07:11:21;;;;;;;5.07;1.02;;;7.30;99.90;;;;;;5071874;28;20047;-75
2021/03/12 07:13:51;;;;;;;1.42;0.70;;;7.30;99.90;;;;;;5075002;28;20028;-75
2021/03/12 07:16:17;;;;;;;3.63;0.90;;;7.30;99.90;;;;;;5074962;28;20058;-75
2021/03/12 07:18:43;;;;;;;2.10;0.60;;;7.40;99.90;;;;;;5075301;28;20049;-75
2021/03/12 07:21:10;;;;;;;1.40;0.60;;;7.50;99.90;;;;;;5074941;28;20517;-76
2021/03/12 07:23:38;;;;;;;2.92;0.75;;;7.40;99.90;;;;;;5074857;28;20024;-75
2021/03/12 07:26:09;;;;;;;2.72;0.70;;;7.50;99.90;;;;;;5074827;28;20027;-75
2021/03/12 07:28:36;;;;;;;1.65;0.90;;;7.60;99.90;;;;;;5074782;28;20081;-75
2021/03/12 07:31:04;;;;;;;3.28;0.88;;;7.70;99.90;;;;;;5074705;28;20020;-75
2021/03/12 07:33:33;;;;;;;3.08;0.70;;;7.80;99.90;;;;;;5074659;28;20028;-75
2021/03/12 07:36:00;;;;;;;3.33;0.80;;;7.90;99.90;;;;;;5074674;28;20031;-75
2021/03/12 07:38:27;;;;;;;2.60;0.70;;;7.90;99.90;;;;;;5074801;28;20103;-75
2021/03/12 07:40:54;;;;;;;2.65;0.70;;;8.10;99.90;;;;;;5074831;28;20070;-76
2021/03/12 07:43:20;;;;;;;2.05;0.70;;;8.20;99.90;;;;;;5092637;28;20478;-76
2021/03/12 07:45:46;;;;;;;8.43;0.90;;;8.20;99.90;;;;;;5074478;28;20036;-75
2021/03/12 07:48:14;;;;;;;3.10;0.80;;;8.10;99.90;;;;;;5096133;28;20124;-76
2021/03/12 07:50:40;;;;;;;2.53;0.90;;;7.90;99.90;;;;;;5078729;28;20107;-76
2021/03/12 07:53:07;;;;;;;2.35;0.73;;;7.90;99.90;;;;;;5078386;28;20503;-76
2021/03/12 07:55:36;;;;;;;3.40;1.20;;;7.90;99.90;;;;;;5078167;28;20523;-75
2021/03/12 07:58:09;;;;;;;2.40;0.60;;;7.90;99.90;;;;;;5095100;28;20035;-75
2021/03/12 08:00:57;;;;;;;2.47;1.02;;;7.90;99.90;;;;;;5078198;28;20053;-76
2021/03/12 08:03:40;;;;;;;5.53;0.68;;;8.00;99.90;;;;;;5095003;28;20119;-76
2021/03/12 08:06:29;;;;;;;4.32;0.95;;;8.10;99.90;;;;;;5078181;28;20530;-76
2021/03/12 08:08:55;;;;;;;2.72;0.98;;;8.20;99.90;;;;;;5077992;28;20060;-75
2021/03/12 08:11:24;;;;;;;2.97;0.60;;;8.00;99.90;;;;;;5096737;28;20055;-75
2021/03/12 08:13:49;;;;;;;6.10;0.80;;;7.90;99.90;;;;;;5078885;28;20025;-75
2021/03/12 08:16:15;;;;;;;2.70;0.65;;;8.00;99.90;;;;;;5078644;28;20031;-75
2021/03/12 08:18:42;;;;;;;1.88;0.77;;;8.10;99.90;;;;;;5078700;28;20115;-76
2021/03/12 08:21:30;;;;;;;1.80;0.50;;;8.30;99.90;;;;;;5078334;28;20028;-76
2021/03/12 08:23:57;;;;;;;2.78;0.77;;;8.40;99.90;;;;;;5094851;28;20024;-75
2021/03/12 08:26:51;;;;;;;2.25;0.80;;;8.50;99.90;;;;;;5077682;28;20024;-76
2021/03/12 08:29:34;;;;;;;1.83;0.70;;;8.60;99.90;;;;;;5077479;28;20024;-76
2021/03/12 08:32:00;;;;;;;1.38;0.70;;;8.60;99.90;;;;;;5094707;28;20020;-75
2021/03/12 08:34:40;;;;;;;2.65;0.60;;;8.50;99.90;;;;;;5077522;28;20439;-75
2021/03/12 08:37:35;;;;;;;1.58;0.68;;;8.60;99.90;;;;;;5077553;28;20103;-75
2021/03/12 08:40:16;;;;;;;3.88;1.15;;;8.80;99.90;;;;;;5077517;28;20024;-75
2021/03/12 08:43:03;;;;;;;4.82;1.00;;;9.40;99.90;;;;;;5094289;28;20116;-75
2021/03/12 08:45:45;;;;;;;1.73;0.70;;;9.80;99.90;;;;;;5077187;28;20481;-75
2021/03/12 08:48:13;;;;;;;3.13;0.80;;;9.60;99.90;;;;;;5077262;28;20058;-75
2021/03/12 08:50:51;;;;;;;5.03;0.85;;;9.70;99.90;;;;;;5077137;28;20164;-74
2021/03/12 08:53:17;;;;;;;4.40;0.88;;;9.90;99.90;;;;;;5077244;28;20044;-75
2021/03/12 08:55:45;;;;;;;2.70;0.60;;;9.80;99.90;;;;;;5076886;28;20508;-75
2021/03/12 08:58:22;;;;;;;3.42;0.90;;;9.90;99.90;;;;;;5075995;28;20024;-75
2021/03/12 09:00:52;;;;;;;4.25;0.90;;;10.10;99.90;;;;;;5077301;28;20026;-74
2021/03/12 09:03:19;;;;;;;2.53;0.70;;;10.30;99.90;;;;;;5077103;28;20107;-75
2021/03/12 09:05:48;;;;;;;4.78;1.85;;;10.00;99.90;;;;;;5076831;28;20130;-74
2021/03/12 09:08:14;;;;;;;3.17;0.73;;;10.50;99.90;;;;;;5076813;28;20075;-75
2021/03/12 09:10:41;;;;;;;5.85;1.00;;;13.10;94.10;;;;;;5076679;28;20032;-75
2021/03/12 09:13:26;;;;;;;1.98;0.60;;;16.30;66.00;;;;;;5076589;28;20118;-75
2021/03/12 09:15:52;;;;;;;3.42;0.75;;;19.30;52.40;;;;;;5076573;28;20481;-75
2021/03/12 09:18:20;;;;;;;2.78;0.50;;;21.90;45.70;;;;;;5076570;28;20031;-75
2021/03/12 09:20:51;;;;;;;1.30;0.60;;;23.60;40.50;;;;;;5076445;28;20028;-75
2021/03/12 09:23:17;;;;;;;1.60;0.77;;;24.10;37.10;;;;;;5076423;28;20027;-76
2021/03/12 09:25:43;;;;;;;2.40;0.80;;;23.60;36.90;;;;;;5076566;28;20024;-76
2021/03/12 09:28:11;;;;;;;2.35;0.85;;;23.30;36.30;;;;;;5076480;28;20097;-76
2021/03/12 09:30:40;;;;;;;3.28;0.77;;;23.10;37.00;;;;;;5076320;28;20051;-76
2021/03/12 09:33:07;;;;;;;1.50;0.57;;;23.50;36.10;;;;;;5076264;28;20028;-76
2021/03/12 09:35:40;;;;;;;2.65;0.80;;;23.30;35.70;;;;;;5076236;28;20487;-76
2021/03/12 09:38:07;;;;;;;4.18;0.82;;;24.40;34.80;;;;;;5076880;28;20099;-76
2021/03/12 09:40:39;;;;;;;2.33;0.70;;;25.10;32.60;;;;;;5076152;28;20469;-76
2021/03/12 09:43:07;;;;;;;2.25;0.80;;;23.30;35.20;;;;;;5076628;28;20024;-76
2021/03/12 09:45:33;;;;;;;2.97;0.88;;;24.40;34.90;;;;;;5075954;28;20119;-76
2021/03/12 09:47:59;;;;;;;2.35;0.93;;;23.20;36.50;;;;;;5076159;28;20491;-76
2021/03/12 09:50:26;;;;;;;5.38;2.05;;;22.90;35.80;;;;;;5075978;28;20047;-76
2021/03/12 09:52:55;;;;;;;8.52;2.65;;;24.00;33.70;;;;;;5075926;28;20020;-76
2021/03/12 09:55:21;;;;;;;5.00;1.80;;;24.80;32.20;;;;;;5075774;28;20122;-76
2021/03/12 09:57:47;;;;;;;2.15;0.80;;;24.90;34.40;;;;;;5075831;28;20015;-76
2021/03/12 10:00:25;;;;;;;4.00;0.85;;;25.70;30.30;;;;;;5075769;28;20032;-76
2021/03/12 10:02:56;;;;;;;2.13;0.88;;;25.00;31.70;;;;;;5075796;28;20024;-75
2021/03/12 10:05:23;;;;;;;2.97;0.82;;;24.80;31.30;;;;;;5075813;28;20427;-75
2021/03/12 10:07:50;;;;;;;1.90;0.60;;;21.70;35.80;;;;;;5075676;28;20024;-75
2021/03/12 10:10:26;;;;;;;2.03;0.80;;;20.00;39.10;;;;;;5093456;28;20024;-74
2021/03/12 10:12:55;;;;;;;2.75;1.05;;;21.00;37.80;;;;;;5075593;28;20516;-75
2021/03/12 10:15:22;;;;;;;3.78;1.02;;;21.80;37.00;;;;;;5075359;28;20047;-75
2021/03/12 10:17:50;;;;;;;4.40;1.00;;;21.70;37.30;;;;;;5075418;28;20027;-75
2021/03/12 10:20:16;;;;;;;2.22;0.70;;;23.40;33.90;;;;;;5075432;28;20024;-76
2021/03/12 10:22:43;;;;;;;2.42;0.75;;;23.50;33.00;;;;;;5092302;28;20023;-76
2021/03/12 10:25:16;;;;;;;1.20;0.73;;;25.10;31.50;;;;;;5075471;28;20114;-75
2021/03/12 10:27:43;;;;;;;2.85;1.00;;;25.90;30.10;;;;;;5075471;28;20024;-74
2021/03/12 10:30:19;;;;;;;3.05;1.00;;;26.50;30.20;;;;;;5092237;28;20113;-75
2021/03/12 10:32:49;;;;;;;1.58;0.80;;;28.70;29.00;;;;;;5075433;28;20024;-74
2021/03/12 10:35:21;;;;;;;2.35;0.80;;;28.50;28.00;;;;;;5092079;28;20097;-76
2021/03/12 10:37:48;;;;;;;2.83;0.85;;;28.60;28.30;;;;;;5075395;28;20024;-76
2021/03/12 10:40:14;;;;;;;2.20;0.80;;;29.10;27.50;;;;;;5075172;28;20115;-76
2021/03/12 10:42:49;;;;;;;2.70;0.70;;;29.50;27.20;;;;;;5075330;28;20032;-76
2021/03/12 10:45:28;;;;;;;1.77;0.70;;;29.80;26.40;;;;;;5093411;28;20028;-75
2021/03/12 10:48:02;;;;;;;1.90;0.70;;;28.10;26.90;;;;;;5099030;22;20048;-75
2021/03/12 10:50:30;;;;;;;1.70;0.80;;;27.50;28.30;;;;;;5075316;28;20024;-75
2021/03/12 10:53:11;;;;;;;2.72;0.88;;;26.30;29.20;;;;;;5075104;28;20398;-75
2021/03/12 10:55:46;;;;;;;2.45;0.60;;;22.20;32.90;;;;;;5074980;28;20031;-76
2021/03/12 10:58:29;;;;;;;3.55;0.88;;;21.10;35.00;;;;;;5074789;28;20370;-76
2021/03/12 11:01:13;;;;;;;2.17;0.80;;;19.80;37.60;;;;;;5074833;28;20024;-76
2021/03/12 11:03:42;;;;;;;1.73;0.68;;;19.30;39.50;;;;;;5091728;28;20103;-76
2021/03/12 11:06:12;;;;;;;3.00;0.90;;;19.30;39.80;;;;;;5074830;28;20023;-75
2021/03/12 11:08:38;;;;;;;2.38;0.77;;;19.40;39.10;;;;;;5074719;28;20017;-76
2021/03/12 11:11:07;;;;;;;2.22;0.70;;;20.50;38.10;;;;;;5077956;28;20043;-77
2021/03/12 11:13:33;;;;;;;2.78;0.90;;;22.40;35.30;;;;;;5076056;28;20035;-76
2021/03/12 11:15:59;;;;;;;2.85;0.70;;;22.80;33.10;;;;;;5074775;28;20082;-76
2021/03/12 11:18:28;;;;;;;2.20;0.80;;;23.90;31.30;;;;;;5074824;28;20024;-76
2021/03/12 11:20:54;;;;;;;2.33;0.60;;;24.20;31.40;;;;;;5074788;28;20020;-76
2021/03/12 11:23:20;;;;;;;1.58;0.70;;;24.10;30.90;;;;;;5078809;28;20016;-76
2021/03/12 11:25:45;;;;;;;5.47;0.80;;;24.90;30.50;;;;;;5078808;28;20097;-76
2021/03/12 11:28:11;;;;;;;2.75;0.65;;;25.60;29.70;;;;;;5078766;28;20168;-76
2021/03/12 11:30:36;;;;;;;3.17;1.05;;;26.00;29.60;;;;;;5078674;28;20020;-77
2021/03/12 11:33:03;;;;;;;1.88;0.80;;;22.90;33.50;;;;;;5078800;28;20499;-76
2021/03/12 11:35:29;;;;;;;2.78;0.93;;;20.30;38.80;;;;;;5078588;28;20107;-76
2021/03/12 11:37:55;;;;;;;3.42;1.10;;;18.50;41.30;;;;;;5078464;28;20081;-76
2021/03/12 11:40:21;;;;;;;1.95;0.95;;;17.80;43.50;;;;;;5078461;28;20477;-76
2021/03/12 11:42:46;;;;;;;2.78;1.05;;;16.80;44.90;;;;;;5078280;28;20031;-76
2021/03/12 11:45:15;;;;;;;3.45;0.88;;;17.20;44.60;;;;;;5078447;28;20031;-76
2021/03/12 11:47:41;;;;;;;2.67;0.90;;;17.20;44.20;;;;;;5078262;28;20493;-76
2021/03/12 11:50:16;;;;;;;2.80;0.90;;;17.70;42.90;;;;;;5078207;28;20118;-76
2021/03/12 11:52:42;;;;;;;3.53;0.85;;;17.00;43.60;;;;;;5078464;28;20024;-76
2021/03/12 11:55:09;;;;;;;3.22;0.93;;;17.20;44.40;;;;;;5078161;28;20020;-75
2021/03/12 11:57:36;;;;;;;3.10;0.95;;;18.20;42.70;;;;;;5078207;28;20020;-76
2021/03/12 12:00:04;;;;;;;2.80;1.00;;;20.70;37.50;;;;;;5079321;28;20021;-76
2021/03/12 12:02:30;;;;;;;2.75;0.93;;;23.50;33.30;;;;;;5078192;28;20032;-74
2021/03/12 12:04:56;;;;;;;3.38;1.10;;;25.30;30.80;;;;;;5081512;28;20031;-74
2021/03/12 12:07:21;;;;;;;3.80;1.30;;;26.40;28.90;;;;;;5089637;28;20496;-74
2021/03/12 12:09:47;;;;;;;1.73;0.77;;;26.10;28.50;;;;;;5109247;28;20028;-76
2021/03/12 12:12:13;;;;;;;0.63;0.43;;;25.20;27.50;;;;;;5088283;28;20469;-76
2021/03/12 12:14:39;;;;;;;2.20;0.65;;;24.30;27.90;;;;;;5102846;28;20024;-76
2021/03/12 12:17:06;;;;;;;3.17;1.10;;;24.00;28.60;;;;;;5086091;28;20112;-76
2021/03/12 12:19:32;;;;;;;3.42;0.80;;;23.80;28.60;;;;;;5079603;28;20024;-76
2021/03/12 12:21:58;;;;;;;2.60;0.90;;;23.60;29.80;;;;;;5078753;28;20028;-76
2021/03/12 12:24:24;;;;;;;3.28;1.00;;;23.60;31.20;;;;;;5077934;28;20026;-77
2021/03/12 12:26:50;;;;;;;3.30;0.60;;;24.10;30.80;;;;;;5077854;28;20504;-76
2021/03/12 12:29:16;;;;;;;2.90;1.02;;;24.40;31.20;;;;;;5078350;28;20039;-76
2021/03/12 12:31:42;;;;;;;2.15;0.88;;;25.20;30.00;;;;;;5095777;28;20512;-76
2021/03/12 12:34:08;;;;;;;4.45;1.35;;;23.50;32.20;;;;;;5077354;28;20047;-76
2021/03/12 12:36:33;;;;;;;4.07;0.95;;;22.50;33.60;;;;;;5077381;28;20047;-75
2021/03/12 12:39:00;;;;;;;5.93;1.60;;;20.60;35.50;;;;;;5095744;28;20024;-76
2021/03/12 12:41:26;;;;;;;1.55;0.70;;;18.60;39.40;;;;;;5077181;28;20035;-76
2021/03/12 12:43:52;;;;;;;4.75;1.00;;;17.50;42.00;;;;;;5077203;28;20020;-77
2021/03/12 12:46:18;;;;;;;2.97;1.17;;;17.10;43.20;;;;;;5095062;28;20024;-76
2021/03/12 12:48:44;;;;;;;3.85;1.00;;;16.50;43.70;;;;;;5076976;28;20027;-76
2021/03/12 12:51:11;;;;;;;3.53;0.95;;;18.30;41.10;;;;;;5095509;28;20046;-76
2021/03/12 12:53:37;;;;;;;9.32;1.50;;;19.50;38.00;;;;;;5095395;28;20470;-76
2021/03/12 12:56:04;;;;;;;3.00;1.00;;;19.70;36.80;;;;;;5076908;28;20028;-76
2021/03/12 12:58:29;;;;;;;4.18;1.10;;;18.80;38.20;;;;;;5095688;28;20020;-77
2021/03/12 13:00:55;;;;;;;2.67;0.80;;;18.00;39.30;;;;;;5076925;28;20031;-76